sensor_id;sensor_type;location;lat;lon;timestamp;P1;durP1;ratioP1;P2;durP2;ratioP2
68858;SDS011;55864;49.238;8.092;2022-12-18T00:00:15;40.67;;;13.70;;
68858;SDS011;55864;49.238;8.092;2022-12-18T00:02:17;37.93;;;12.20;;
68858;SDS011;55864;49.238;8.092;2022-12-18T00:04:20;38.93;;;14.43;;
68858;SDS011;55864;49.238;8.092;2022-12-18T00:06:24;40.27;;;14.60;;
68858;SDS011;55864;49.238;8.092;2022-12-18T00:08:25;42.70;;;13.65;;
68858;SDS011;55864;49.238;8.092;2022-12-18T00:10:26;43.53;;;13.90;;
68858;SDS011;55864;49.238;8.092;2022-12-18T00:12:27;39.17;;;14.23;;
68858;SDS011;55864;49.238;8.092;2022-12-18T00:14:27;44.83;;;13.70;;
68858;SDS011;55864;49.238;8.092;2022-12-18T00:16:29;45.10;;;15.17;;
68858;SDS011;55864;49.238;8.092;2022-12-18T00:18:31;41.40;;;14.25;;
68858;SDS011;55864;49.238;8.092;2022-12-18T00:20:35;35.57;;;12.33;;
68858;SDS011;55864;49.238;8.092;2022-12-18T00:22:36;43.67;;;16.15;;
68858;SDS011;55864;49.238;8.092;2022-12-18T00:24:37;39.20;;;14.10;;
68858;SDS011;55864;49.238;8.092;2022-12-18T00:26:37;32.73;;;10.93;;
68858;SDS011;55864;49.238;8.092;2022-12-18T00:28:39;35.50;;;12.60;;
68858;SDS011;55864;49.238;8.092;2022-12-18T00:30:39;39.67;;;13.37;;
68858;SDS011;55864;49.238;8.092;2022-12-18T00:32:43;43.20;;;14.77;;
68858;SDS011;55864;49.238;8.092;2022-12-18T00:34:43;38.67;;;13.30;;
68858;SDS011;55864;49.238;8.092;2022-12-18T00:36:44;33.00;;;13.03;;
68858;SDS011;55864;49.238;8.092;2022-12-18T00:38:47;38.15;;;12.65;;
68858;SDS011;55864;49.238;8.092;2022-12-18T00:40:51;37.77;;;12.53;;
68858;SDS011;55864;49.238;8.092;2022-12-18T00:42:52;49.30;;;15.03;;
68858;SDS011;55864;49.238;8.092;2022-12-18T00:44:52;39.17;;;11.60;;
68858;SDS011;55864;49.238;8.092;2022-12-18T00:46:53;76.83;;;18.17;;
68858;SDS011;55864;49.238;8.092;2022-12-18T00:48:55;67.67;;;20.50;;
68858;SDS011;55864;49.238;8.092;2022-12-18T00:50:55;61.20;;;19.33;;
68858;SDS011;55864;49.238;8.092;2022-12-18T00:52:56;52.93;;;16.67;;
68858;SDS011;55864;49.238;8.092;2022-12-18T00:54:57;48.67;;;16.27;;
68858;SDS011;55864;49.238;8.092;2022-12-18T00:56:57;43.43;;;13.63;;
68858;SDS011;55864;49.238;8.092;2022-12-18T00:58:58;46.17;;;14.07;;
68858;SDS011;55864;49.238;8.092;2022-12-18T01:00:58;39.90;;;14.93;;
68858;SDS011;55864;49.238;8.092;2022-12-18T01:02:59;38.07;;;13.33;;
68858;SDS011;55864;49.238;8.092;2022-12-18T01:05:01;45.63;;;15.73;;
68858;SDS011;55864;49.238;8.092;2022-12-18T01:07:02;40.33;;;13.23;;
68858;SDS011;55864;49.238;8.092;2022-12-18T01:09:02;38.53;;;12.80;;
68858;SDS011;55864;49.238;8.092;2022-12-18T01:11:06;40.20;;;13.83;;
68858;SDS011;55864;49.238;8.092;2022-12-18T01:13:08;41.60;;;13.17;;
68858;SDS011;55864;49.238;8.092;2022-12-18T01:15:09;37.33;;;12.50;;
68858;SDS011;55864;49.238;8.092;2022-12-18T01:17:11;44.50;;;14.35;;
68858;SDS011;55864;49.238;8.092;2022-12-18T01:19:12;37.83;;;13.00;;
68858;SDS011;55864;49.238;8.092;2022-12-18T01:21:15;38.33;;;12.33;;
68858;SDS011;55864;49.238;8.092;2022-12-18T01:23:16;40.08;;;13.77;;
68858;SDS011;55864;49.238;8.092;2022-12-18T01:25:16;41.37;;;13.47;;
68858;SDS011;55864;49.238;8.092;2022-12-18T01:27:17;46.57;;;15.17;;
68858;SDS011;55864;49.238;8.092;2022-12-18T01:29:18;39.17;;;13.23;;
68858;SDS011;55864;49.238;8.092;2022-12-18T01:31:19;39.90;;;12.20;;
68858;SDS011;55864;49.238;8.092;2022-12-18T01:33:21;36.72;;;12.93;;
68858;SDS011;55864;49.238;8.092;2022-12-18T01:35:22;36.57;;;12.37;;
68858;SDS011;55864;49.238;8.092;2022-12-18T01:37:24;38.73;;;13.67;;
68858;SDS011;55864;49.238;8.092;2022-12-18T01:39:24;40.37;;;13.50;;
68858;SDS011;55864;49.238;8.092;2022-12-18T01:41:26;37.37;;;13.17;;
68858;SDS011;55864;49.238;8.092;2022-12-18T01:43:45;41.90;;;15.40;;
68858;SDS011;55864;49.238;8.092;2022-12-18T01:45:50;37.77;;;13.40;;
68858;SDS011;55864;49.238;8.092;2022-12-18T01:47:52;44.23;;;14.73;;
68858;SDS011;55864;49.238;8.092;2022-12-18T01:49:55;47.47;;;14.85;;
68858;SDS011;55864;49.238;8.092;2022-12-18T01:51:57;42.03;;;13.13;;
68858;SDS011;55864;49.238;8.092;2022-12-18T01:53:58;42.33;;;13.70;;
68858;SDS011;55864;49.238;8.092;2022-12-18T01:55:59;42.47;;;14.03;;
68858;SDS011;55864;49.238;8.092;2022-12-18T01:58:00;38.00;;;12.53;;
68858;SDS011;55864;49.238;8.092;2022-12-18T02:00:03;39.67;;;13.90;;
68858;SDS011;55864;49.238;8.092;2022-12-18T02:02:13;41.97;;;13.40;;
68858;SDS011;55864;49.238;8.092;2022-12-18T02:04:18;42.17;;;14.97;;
68858;SDS011;55864;49.238;8.092;2022-12-18T02:06:21;39.77;;;13.23;;
68858;SDS011;55864;49.238;8.092;2022-12-18T02:08:29;44.73;;;14.67;;
68858;SDS011;55864;49.238;8.092;2022-12-18T02:10:44;37.83;;;13.77;;
68858;SDS011;55864;49.238;8.092;2022-12-18T02:12:59;43.10;;;13.33;;
68858;SDS011;55864;49.238;8.092;2022-12-18T02:15:08;42.67;;;15.07;;
68858;SDS011;55864;49.238;8.092;2022-12-18T02:17:16;37.70;;;12.07;;
68858;SDS011;55864;49.238;8.092;2022-12-18T02:19:26;41.30;;;14.37;;
68858;SDS011;55864;49.238;8.092;2022-12-18T02:21:40;40.17;;;14.27;;
68858;SDS011;55864;49.238;8.092;2022-12-18T02:23:54;37.45;;;12.18;;
68858;SDS011;55864;49.238;8.092;2022-12-18T02:26:06;43.27;;;14.23;;
68858;SDS011;55864;49.238;8.092;2022-12-18T02:28:14;37.50;;;13.63;;
68858;SDS011;55864;49.238;8.092;2022-12-18T02:30:18;41.90;;;14.73;;
68858;SDS011;55864;49.238;8.092;2022-12-18T02:32:20;46.23;;;15.20;;
68858;SDS011;55864;49.238;8.092;2022-12-18T02:34:26;39.80;;;12.60;;
68858;SDS011;55864;49.238;8.092;2022-12-18T02:36:31;40.40;;;13.80;;
68858;SDS011;55864;49.238;8.092;2022-12-18T02:38:34;42.33;;;14.40;;
68858;SDS011;55864;49.238;8.092;2022-12-18T02:40:42;35.07;;;12.00;;
68858;SDS011;55864;49.238;8.092;2022-12-18T02:42:48;41.23;;;14.00;;
68858;SDS011;55864;49.238;8.092;2022-12-18T02:44:52;45.63;;;14.70;;
68858;SDS011;55864;49.238;8.092;2022-12-18T02:46:57;36.07;;;13.40;;
68858;SDS011;55864;49.238;8.092;2022-12-18T02:49:01;46.77;;;14.13;;
68858;SDS011;55864;49.238;8.092;2022-12-18T02:51:11;37.10;;;12.97;;
68858;SDS011;55864;49.238;8.092;2022-12-18T02:53:23;39.80;;;13.95;;
68858;SDS011;55864;49.238;8.092;2022-12-18T02:55:32;43.60;;;14.23;;
68858;SDS011;55864;49.238;8.092;2022-12-18T02:57:48;38.40;;;13.53;;
68858;SDS011;55864;49.238;8.092;2022-12-18T02:59:58;41.67;;;12.37;;
68858;SDS011;55864;49.238;8.092;2022-12-18T03:02:07;39.77;;;13.50;;
68858;SDS011;55864;49.238;8.092;2022-12-18T03:04:16;41.00;;;14.17;;
68858;SDS011;55864;49.238;8.092;2022-12-18T03:06:24;40.27;;;13.03;;
68858;SDS011;55864;49.238;8.092;2022-12-18T03:08:29;43.63;;;13.90;;
68858;SDS011;55864;49.238;8.092;2022-12-18T03:10:38;40.77;;;13.73;;
68858;SDS011;55864;49.238;8.092;2022-12-18T03:12:44;43.83;;;14.90;;
68858;SDS011;55864;49.238;8.092;2022-12-18T03:14:54;37.70;;;12.70;;
68858;SDS011;55864;49.238;8.092;2022-12-18T03:17:01;39.67;;;13.70;;
68858;SDS011;55864;49.238;8.092;2022-12-18T03:19:06;41.10;;;13.63;;
68858;SDS011;55864;49.238;8.092;2022-12-18T03:21:11;42.63;;;14.27;;
68858;SDS011;55864;49.238;8.092;2022-12-18T03:23:18;42.80;;;14.83;;
68858;SDS011;55864;49.238;8.092;2022-12-18T03:25:22;38.07;;;13.77;;
68858;SDS011;55864;49.238;8.092;2022-12-18T03:27:28;36.43;;;12.80;;
68858;SDS011;55864;49.238;8.092;2022-12-18T03:29:35;39.73;;;13.20;;
68858;SDS011;55864;49.238;8.092;2022-12-18T03:31:40;47.47;;;15.90;;
68858;SDS011;55864;49.238;8.092;2022-12-18T03:33:48;40.97;;;14.47;;
68858;SDS011;55864;49.238;8.092;2022-12-18T03:35:52;39.73;;;13.07;;
68858;SDS011;55864;49.238;8.092;2022-12-18T03:37:53;41.23;;;14.20;;
68858;SDS011;55864;49.238;8.092;2022-12-18T03:39:54;45.07;;;14.80;;
68858;SDS011;55864;49.238;8.092;2022-12-18T03:41:57;36.77;;;12.47;;
68858;SDS011;55864;49.238;8.092;2022-12-18T03:44:14;44.80;;;14.23;;
68858;SDS011;55864;49.238;8.092;2022-12-18T03:46:24;37.00;;;14.00;;
68858;SDS011;55864;49.238;8.092;2022-12-18T03:48:31;44.30;;;15.00;;
68858;SDS011;55864;49.238;8.092;2022-12-18T03:50:42;43.23;;;14.67;;
68858;SDS011;55864;49.238;8.092;2022-12-18T03:52:48;38.40;;;13.40;;
68858;SDS011;55864;49.238;8.092;2022-12-18T03:54:54;40.93;;;13.87;;
68858;SDS011;55864;49.238;8.092;2022-12-18T03:56:58;40.53;;;14.80;;
68858;SDS011;55864;49.238;8.092;2022-12-18T03:59:03;47.37;;;15.23;;
68858;SDS011;55864;49.238;8.092;2022-12-18T04:01:06;43.05;;;15.68;;
68858;SDS011;55864;49.238;8.092;2022-12-18T04:05:17;45.97;;;12.97;;
68858;SDS011;55864;49.238;8.092;2022-12-18T04:07:19;43.50;;;13.32;;
68858;SDS011;55864;49.238;8.092;2022-12-18T04:09:22;40.65;;;14.07;;
68858;SDS011;55864;49.238;8.092;2022-12-18T04:11:23;43.70;;;14.70;;
68858;SDS011;55864;49.238;8.092;2022-12-18T04:13:24;38.63;;;13.23;;
68858;SDS011;55864;49.238;8.092;2022-12-18T04:15:27;39.92;;;12.73;;
68858;SDS011;55864;49.238;8.092;2022-12-18T04:17:29;42.57;;;13.87;;
68858;SDS011;55864;49.238;8.092;2022-12-18T04:19:31;46.03;;;15.70;;
68858;SDS011;55864;49.238;8.092;2022-12-18T04:21:34;41.77;;;14.97;;
68858;SDS011;55864;49.238;8.092;2022-12-18T04:23:34;34.50;;;11.83;;
68858;SDS011;55864;49.238;8.092;2022-12-18T04:25:35;40.63;;;15.13;;
68858;SDS011;55864;49.238;8.092;2022-12-18T04:27:42;46.03;;;15.93;;
68858;SDS011;55864;49.238;8.092;2022-12-18T04:29:44;68.07;;;16.37;;
68858;SDS011;55864;49.238;8.092;2022-12-18T04:31:44;42.83;;;14.23;;
68858;SDS011;55864;49.238;8.092;2022-12-18T04:33:45;43.97;;;14.80;;
68858;SDS011;55864;49.238;8.092;2022-12-18T04:35:47;46.43;;;16.27;;
68858;SDS011;55864;49.238;8.092;2022-12-18T04:37:49;45.93;;;15.30;;
68858;SDS011;55864;49.238;8.092;2022-12-18T04:39:50;40.87;;;15.27;;
68858;SDS011;55864;49.238;8.092;2022-12-18T04:41:58;45.83;;;15.93;;
68858;SDS011;55864;49.238;8.092;2022-12-18T04:43:59;42.53;;;15.03;;
68858;SDS011;55864;49.238;8.092;2022-12-18T04:46:03;42.13;;;15.17;;
68858;SDS011;55864;49.238;8.092;2022-12-18T04:48:04;41.00;;;14.90;;
68858;SDS011;55864;49.238;8.092;2022-12-18T04:50:05;37.70;;;14.80;;
68858;SDS011;55864;49.238;8.092;2022-12-18T04:52:06;38.50;;;14.27;;
68858;SDS011;55864;49.238;8.092;2022-12-18T04:54:08;41.30;;;14.17;;
68858;SDS011;55864;49.238;8.092;2022-12-18T04:56:09;40.27;;;14.00;;
68858;SDS011;55864;49.238;8.092;2022-12-18T04:58:11;42.43;;;14.60;;
68858;SDS011;55864;49.238;8.092;2022-12-18T05:00:12;40.63;;;13.80;;
68858;SDS011;55864;49.238;8.092;2022-12-18T05:02:13;42.70;;;15.73;;
68858;SDS011;55864;49.238;8.092;2022-12-18T05:04:14;38.20;;;13.37;;
68858;SDS011;55864;49.238;8.092;2022-12-18T05:06:14;37.73;;;14.43;;
68858;SDS011;55864;49.238;8.092;2022-12-18T05:08:15;40.30;;;14.70;;
68858;SDS011;55864;49.238;8.092;2022-12-18T05:10:16;39.93;;;14.07;;
68858;SDS011;55864;49.238;8.092;2022-12-18T05:12:17;40.57;;;14.33;;
68858;SDS011;55864;49.238;8.092;2022-12-18T05:14:18;41.33;;;14.07;;
68858;SDS011;55864;49.238;8.092;2022-12-18T05:16:18;44.23;;;14.77;;
68858;SDS011;55864;49.238;8.092;2022-12-18T05:18:19;39.73;;;14.37;;
68858;SDS011;55864;49.238;8.092;2022-12-18T05:20:19;44.13;;;16.07;;
68858;SDS011;55864;49.238;8.092;2022-12-18T05:22:20;40.67;;;15.27;;
68858;SDS011;55864;49.238;8.092;2022-12-18T05:24:20;40.47;;;12.87;;
68858;SDS011;55864;49.238;8.092;2022-12-18T05:26:22;42.43;;;15.00;;
68858;SDS011;55864;49.238;8.092;2022-12-18T05:28:23;37.23;;;14.17;;
68858;SDS011;55864;49.238;8.092;2022-12-18T05:30:25;39.93;;;15.00;;
68858;SDS011;55864;49.238;8.092;2022-12-18T05:32:26;38.93;;;14.63;;
68858;SDS011;55864;49.238;8.092;2022-12-18T05:34:26;38.33;;;14.13;;
68858;SDS011;55864;49.238;8.092;2022-12-18T05:36:27;42.37;;;14.93;;
68858;SDS011;55864;49.238;8.092;2022-12-18T05:38:28;42.53;;;15.47;;
68858;SDS011;55864;49.238;8.092;2022-12-18T05:40:29;41.43;;;14.13;;
68858;SDS011;55864;49.238;8.092;2022-12-18T05:42:31;38.70;;;15.40;;
68858;SDS011;55864;49.238;8.092;2022-12-18T05:44:32;43.60;;;16.00;;
68858;SDS011;55864;49.238;8.092;2022-12-18T05:46:32;46.37;;;15.77;;
68858;SDS011;55864;49.238;8.092;2022-12-18T05:48:33;40.03;;;15.13;;
68858;SDS011;55864;49.238;8.092;2022-12-18T05:50:34;43.67;;;15.40;;
68858;SDS011;55864;49.238;8.092;2022-12-18T05:52:35;41.70;;;14.63;;
68858;SDS011;55864;49.238;8.092;2022-12-18T05:54:36;38.10;;;14.23;;
68858;SDS011;55864;49.238;8.092;2022-12-18T05:56:36;43.57;;;15.50;;
68858;SDS011;55864;49.238;8.092;2022-12-18T05:58:38;46.77;;;16.60;;
68858;SDS011;55864;49.238;8.092;2022-12-18T06:00:43;47.00;;;16.20;;
68858;SDS011;55864;49.238;8.092;2022-12-18T06:02:46;39.93;;;16.47;;
68858;SDS011;55864;49.238;8.092;2022-12-18T06:04:47;45.33;;;16.73;;
68858;SDS011;55864;49.238;8.092;2022-12-18T06:06:47;42.77;;;14.53;;
68858;SDS011;55864;49.238;8.092;2022-12-18T06:08:48;44.80;;;15.63;;
68858;SDS011;55864;49.238;8.092;2022-12-18T06:10:50;42.93;;;14.23;;
68858;SDS011;55864;49.238;8.092;2022-12-18T06:12:51;43.57;;;15.90;;
68858;SDS011;55864;49.238;8.092;2022-12-18T06:14:52;40.07;;;15.10;;
68858;SDS011;55864;49.238;8.092;2022-12-18T06:16:53;47.43;;;17.40;;
68858;SDS011;55864;49.238;8.092;2022-12-18T06:18:55;38.23;;;14.83;;
68858;SDS011;55864;49.238;8.092;2022-12-18T06:20:56;49.60;;;16.80;;
68858;SDS011;55864;49.238;8.092;2022-12-18T06:22:57;51.00;;;16.63;;
68858;SDS011;55864;49.238;8.092;2022-12-18T06:24:58;44.40;;;16.10;;
68858;SDS011;55864;49.238;8.092;2022-12-18T06:26:58;40.93;;;16.60;;
68858;SDS011;55864;49.238;8.092;2022-12-18T06:28:59;55.83;;;19.67;;
68858;SDS011;55864;49.238;8.092;2022-12-18T06:31:01;41.47;;;16.50;;
68858;SDS011;55864;49.238;8.092;2022-12-18T06:33:02;45.42;;;16.17;;
68858;SDS011;55864;49.238;8.092;2022-12-18T06:35:03;39.87;;;15.40;;
68858;SDS011;55864;49.238;8.092;2022-12-18T06:37:04;44.03;;;15.47;;
68858;SDS011;55864;49.238;8.092;2022-12-18T06:39:05;43.83;;;15.90;;
68858;SDS011;55864;49.238;8.092;2022-12-18T06:41:06;47.83;;;18.07;;
68858;SDS011;55864;49.238;8.092;2022-12-18T06:43:07;46.73;;;15.93;;
68858;SDS011;55864;49.238;8.092;2022-12-18T06:45:08;46.27;;;16.30;;
68858;SDS011;55864;49.238;8.092;2022-12-18T06:47:10;48.90;;;17.93;;
68858;SDS011;55864;49.238;8.092;2022-12-18T06:49:11;42.77;;;15.73;;
68858;SDS011;55864;49.238;8.092;2022-12-18T06:51:11;41.77;;;15.73;;
68858;SDS011;55864;49.238;8.092;2022-12-18T06:53:12;44.27;;;15.87;;
68858;SDS011;55864;49.238;8.092;2022-12-18T06:55:12;42.00;;;15.87;;
68858;SDS011;55864;49.238;8.092;2022-12-18T06:57:13;45.50;;;16.23;;
68858;SDS011;55864;49.238;8.092;2022-12-18T06:59:13;41.07;;;15.80;;
68858;SDS011;55864;49.238;8.092;2022-12-18T07:01:14;44.77;;;16.47;;
68858;SDS011;55864;49.238;8.092;2022-12-18T07:03:16;44.40;;;14.30;;
68858;SDS011;55864;49.238;8.092;2022-12-18T07:05:16;42.13;;;16.23;;
68858;SDS011;55864;49.238;8.092;2022-12-18T07:07:17;47.87;;;17.27;;
68858;SDS011;55864;49.238;8.092;2022-12-18T07:09:18;46.57;;;16.43;;
68858;SDS011;55864;49.238;8.092;2022-12-18T07:11:18;43.87;;;16.07;;
68858;SDS011;55864;49.238;8.092;2022-12-18T07:13:20;44.87;;;17.47;;
68858;SDS011;55864;49.238;8.092;2022-12-18T07:15:20;45.17;;;17.20;;
68858;SDS011;55864;49.238;8.092;2022-12-18T07:17:21;53.27;;;17.40;;
68858;SDS011;55864;49.238;8.092;2022-12-18T07:19:23;43.27;;;15.43;;
68858;SDS011;55864;49.238;8.092;2022-12-18T07:21:23;47.47;;;18.17;;
68858;SDS011;55864;49.238;8.092;2022-12-18T07:23:24;48.00;;;17.53;;
68858;SDS011;55864;49.238;8.092;2022-12-18T07:25:25;44.90;;;16.00;;
68858;SDS011;55864;49.238;8.092;2022-12-18T07:27:25;44.87;;;17.10;;
68858;SDS011;55864;49.238;8.092;2022-12-18T07:29:26;48.23;;;17.23;;
68858;SDS011;55864;49.238;8.092;2022-12-18T07:31:26;48.97;;;16.77;;
68858;SDS011;55864;49.238;8.092;2022-12-18T07:33:27;47.23;;;16.33;;
68858;SDS011;55864;49.238;8.092;2022-12-18T07:35:29;49.30;;;17.77;;
68858;SDS011;55864;49.238;8.092;2022-12-18T07:37:29;48.77;;;18.53;;
68858;SDS011;55864;49.238;8.092;2022-12-18T07:39:30;55.33;;;19.07;;
68858;SDS011;55864;49.238;8.092;2022-12-18T07:41:31;55.87;;;18.90;;
68858;SDS011;55864;49.238;8.092;2022-12-18T07:43:41;61.17;;;19.77;;
68858;SDS011;55864;49.238;8.092;2022-12-18T07:45:42;53.63;;;18.03;;
68858;SDS011;55864;49.238;8.092;2022-12-18T07:47:43;48.97;;;16.40;;
68858;SDS011;55864;49.238;8.092;2022-12-18T07:49:43;48.07;;;16.23;;
68858;SDS011;55864;49.238;8.092;2022-12-18T07:53:49;41.87;;;14.47;;
68858;SDS011;55864;49.238;8.092;2022-12-18T07:55:54;49.20;;;16.33;;
68858;SDS011;55864;49.238;8.092;2022-12-18T07:57:55;51.43;;;17.93;;
68858;SDS011;55864;49.238;8.092;2022-12-18T07:59:55;42.20;;;16.70;;
68858;SDS011;55864;49.238;8.092;2022-12-18T08:01:56;51.33;;;17.20;;
68858;SDS011;55864;49.238;8.092;2022-12-18T08:03:56;46.77;;;18.33;;
68858;SDS011;55864;49.238;8.092;2022-12-18T08:05:58;57.20;;;17.23;;
68858;SDS011;55864;49.238;8.092;2022-12-18T08:08:01;49.10;;;17.83;;
68858;SDS011;55864;49.238;8.092;2022-12-18T08:10:01;67.77;;;22.17;;
68858;SDS011;55864;49.238;8.092;2022-12-18T08:12:02;77.23;;;25.27;;
68858;SDS011;55864;49.238;8.092;2022-12-18T08:14:03;65.33;;;21.23;;
68858;SDS011;55864;49.238;8.092;2022-12-18T08:16:05;53.63;;;21.00;;
68858;SDS011;55864;49.238;8.092;2022-12-18T08:18:07;53.80;;;18.95;;
68858;SDS011;55864;49.238;8.092;2022-12-18T08:20:08;45.13;;;16.97;;
68858;SDS011;55864;49.238;8.092;2022-12-18T08:22:09;56.83;;;20.13;;
68858;SDS011;55864;49.238;8.092;2022-12-18T08:24:11;54.97;;;19.73;;
68858;SDS011;55864;49.238;8.092;2022-12-18T08:26:12;60.17;;;20.83;;
68858;SDS011;55864;49.238;8.092;2022-12-18T08:28:13;56.30;;;20.10;;
68858;SDS011;55864;49.238;8.092;2022-12-18T08:30:13;49.97;;;19.27;;
68858;SDS011;55864;49.238;8.092;2022-12-18T08:32:14;56.00;;;18.73;;
68858;SDS011;55864;49.238;8.092;2022-12-18T08:34:14;47.23;;;16.83;;
68858;SDS011;55864;49.238;8.092;2022-12-18T08:36:15;48.77;;;17.83;;
68858;SDS011;55864;49.238;8.092;2022-12-18T08:38:16;48.27;;;17.87;;
68858;SDS011;55864;49.238;8.092;2022-12-18T08:40:18;43.17;;;17.20;;
68858;SDS011;55864;49.238;8.092;2022-12-18T08:42:18;43.43;;;16.23;;
68858;SDS011;55864;49.238;8.092;2022-12-18T08:44:19;44.13;;;18.43;;
68858;SDS011;55864;49.238;8.092;2022-12-18T08:46:20;46.97;;;17.47;;
68858;SDS011;55864;49.238;8.092;2022-12-18T08:48:21;48.77;;;18.67;;
68858;SDS011;55864;49.238;8.092;2022-12-18T08:50:22;52.67;;;18.00;;
68858;SDS011;55864;49.238;8.092;2022-12-18T08:52:22;48.43;;;16.57;;
68858;SDS011;55864;49.238;8.092;2022-12-18T08:54:23;43.90;;;17.80;;
68858;SDS011;55864;49.238;8.092;2022-12-18T08:56:25;50.43;;;18.63;;
68858;SDS011;55864;49.238;8.092;2022-12-18T08:58:26;48.10;;;17.60;;
68858;SDS011;55864;49.238;8.092;2022-12-18T09:00:26;45.03;;;17.03;;
68858;SDS011;55864;49.238;8.092;2022-12-18T09:02:28;46.27;;;18.23;;
68858;SDS011;55864;49.238;8.092;2022-12-18T09:04:28;49.83;;;18.20;;
68858;SDS011;55864;49.238;8.092;2022-12-18T09:06:29;46.67;;;17.37;;
68858;SDS011;55864;49.238;8.092;2022-12-18T09:08:29;38.90;;;15.53;;
68858;SDS011;55864;49.238;8.092;2022-12-18T09:10:30;71.87;;;24.97;;
68858;SDS011;55864;49.238;8.092;2022-12-18T09:12:32;45.57;;;18.70;;
68858;SDS011;55864;49.238;8.092;2022-12-18T09:14:32;39.47;;;16.53;;
68858;SDS011;55864;49.238;8.092;2022-12-18T09:16:33;47.93;;;17.17;;
68858;SDS011;55864;49.238;8.092;2022-12-18T09:18:33;49.43;;;18.03;;
68858;SDS011;55864;49.238;8.092;2022-12-18T09:20:34;46.83;;;17.53;;
68858;SDS011;55864;49.238;8.092;2022-12-18T09:22:35;52.00;;;19.50;;
68858;SDS011;55864;49.238;8.092;2022-12-18T09:24:35;48.37;;;17.67;;
68858;SDS011;55864;49.238;8.092;2022-12-18T09:26:36;49.70;;;18.07;;
68858;SDS011;55864;49.238;8.092;2022-12-18T09:28:38;44.00;;;16.47;;
68858;SDS011;55864;49.238;8.092;2022-12-18T09:30:39;49.80;;;17.47;;
68858;SDS011;55864;49.238;8.092;2022-12-18T09:32:41;47.07;;;17.83;;
68858;SDS011;55864;49.238;8.092;2022-12-18T09:34:41;48.80;;;16.47;;
68858;SDS011;55864;49.238;8.092;2022-12-18T09:36:42;52.10;;;19.10;;
68858;SDS011;55864;49.238;8.092;2022-12-18T09:38:42;61.77;;;22.93;;
68858;SDS011;55864;49.238;8.092;2022-12-18T09:40:44;69.47;;;26.43;;
68858;SDS011;55864;49.238;8.092;2022-12-18T09:42:48;65.85;;;25.00;;
68858;SDS011;55864;49.238;8.092;2022-12-18T09:44:53;52.90;;;19.80;;
68858;SDS011;55864;49.238;8.092;2022-12-18T09:46:58;57.00;;;22.07;;
68858;SDS011;55864;49.238;8.092;2022-12-18T09:49:05;55.90;;;21.67;;
68858;SDS011;55864;49.238;8.092;2022-12-18T09:51:11;46.43;;;18.67;;
68858;SDS011;55864;49.238;8.092;2022-12-18T09:53:19;46.57;;;19.03;;
68858;SDS011;55864;49.238;8.092;2022-12-18T09:55:25;44.73;;;17.57;;
68858;SDS011;55864;49.238;8.092;2022-12-18T09:57:32;49.47;;;18.20;;
68858;SDS011;55864;49.238;8.092;2022-12-18T09:59:37;50.20;;;18.83;;
68858;SDS011;55864;49.238;8.092;2022-12-18T10:01:40;43.43;;;17.53;;
68858;SDS011;55864;49.238;8.092;2022-12-18T10:03:40;49.63;;;19.33;;
68858;SDS011;55864;49.238;8.092;2022-12-18T10:05:43;42.07;;;15.07;;
68858;SDS011;55864;49.238;8.092;2022-12-18T10:07:54;38.43;;;15.10;;
68858;SDS011;55864;49.238;8.092;2022-12-18T10:10:02;40.63;;;17.17;;
68858;SDS011;55864;49.238;8.092;2022-12-18T10:12:08;43.80;;;15.53;;
68858;SDS011;55864;49.238;8.092;2022-12-18T10:14:15;44.03;;;16.20;;
68858;SDS011;55864;49.238;8.092;2022-12-18T10:16:24;40.83;;;15.63;;
68858;SDS011;55864;49.238;8.092;2022-12-18T10:18:38;40.37;;;15.40;;
68858;SDS011;55864;49.238;8.092;2022-12-18T10:20:54;43.40;;;15.43;;
68858;SDS011;55864;49.238;8.092;2022-12-18T10:23:00;41.80;;;16.00;;
68858;SDS011;55864;49.238;8.092;2022-12-18T10:25:15;44.50;;;14.87;;
68858;SDS011;55864;49.238;8.092;2022-12-18T10:27:22;40.43;;;15.90;;
68858;SDS011;55864;49.238;8.092;2022-12-18T10:29:24;44.33;;;15.03;;
68858;SDS011;55864;49.238;8.092;2022-12-18T10:31:25;45.80;;;15.63;;
68858;SDS011;55864;49.238;8.092;2022-12-18T10:33:27;40.90;;;15.90;;
68858;SDS011;55864;49.238;8.092;2022-12-18T10:35:31;46.40;;;17.27;;
68858;SDS011;55864;49.238;8.092;2022-12-18T10:37:32;39.57;;;14.27;;
68858;SDS011;55864;49.238;8.092;2022-12-18T10:39:32;37.57;;;15.00;;
68858;SDS011;55864;49.238;8.092;2022-12-18T10:41:33;44.70;;;16.83;;
68858;SDS011;55864;49.238;8.092;2022-12-18T10:43:33;42.70;;;16.27;;
68858;SDS011;55864;49.238;8.092;2022-12-18T10:45:35;46.67;;;17.07;;
68858;SDS011;55864;49.238;8.092;2022-12-18T10:47:36;45.47;;;16.43;;
68858;SDS011;55864;49.238;8.092;2022-12-18T10:49:42;44.60;;;16.03;;
68858;SDS011;55864;49.238;8.092;2022-12-18T10:51:49;44.00;;;15.93;;
68858;SDS011;55864;49.238;8.092;2022-12-18T10:53:52;42.13;;;15.25;;
68858;SDS011;55864;49.238;8.092;2022-12-18T10:55:57;40.33;;;16.13;;
68858;SDS011;55864;49.238;8.092;2022-12-18T10:58:13;39.75;;;16.05;;
68858;SDS011;55864;49.238;8.092;2022-12-18T11:00:24;45.80;;;16.60;;
68858;SDS011;55864;49.238;8.092;2022-12-18T11:02:27;45.47;;;15.90;;
68858;SDS011;55864;49.238;8.092;2022-12-18T11:04:33;42.50;;;15.97;;
68858;SDS011;55864;49.238;8.092;2022-12-18T11:06:34;41.43;;;16.63;;
68858;SDS011;55864;49.238;8.092;2022-12-18T11:08:58;40.30;;;15.53;;
68858;SDS011;55864;49.238;8.092;2022-12-18T11:11:01;46.90;;;17.13;;
68858;SDS011;55864;49.238;8.092;2022-12-18T11:13:11;41.30;;;16.03;;
68858;SDS011;55864;49.238;8.092;2022-12-18T11:15:16;42.67;;;16.23;;
68858;SDS011;55864;49.238;8.092;2022-12-18T11:17:20;42.83;;;16.10;;
68858;SDS011;55864;49.238;8.092;2022-12-18T11:19:30;50.40;;;16.45;;
68858;SDS011;55864;49.238;8.092;2022-12-18T11:21:38;46.20;;;17.07;;
68858;SDS011;55864;49.238;8.092;2022-12-18T11:23:44;45.97;;;16.23;;
68858;SDS011;55864;49.238;8.092;2022-12-18T11:25:51;44.03;;;16.20;;
68858;SDS011;55864;49.238;8.092;2022-12-18T11:27:55;47.37;;;15.77;;
68858;SDS011;55864;49.238;8.092;2022-12-18T11:30:06;46.72;;;17.20;;
68858;SDS011;55864;49.238;8.092;2022-12-18T11:32:21;45.50;;;18.57;;
68858;SDS011;55864;49.238;8.092;2022-12-18T11:34:28;53.93;;;19.10;;
68858;SDS011;55864;49.238;8.092;2022-12-18T11:36:32;49.57;;;18.63;;
68858;SDS011;55864;49.238;8.092;2022-12-18T11:38:37;52.70;;;18.60;;
68858;SDS011;55864;49.238;8.092;2022-12-18T11:40:42;51.20;;;19.13;;
68858;SDS011;55864;49.238;8.092;2022-12-18T11:42:48;50.03;;;17.47;;
68858;SDS011;55864;49.238;8.092;2022-12-18T11:44:54;49.60;;;18.17;;
68858;SDS011;55864;49.238;8.092;2022-12-18T11:46:59;40.90;;;16.00;;
68858;SDS011;55864;49.238;8.092;2022-12-18T11:49:05;44.23;;;16.03;;
68858;SDS011;55864;49.238;8.092;2022-12-18T11:51:14;47.43;;;17.90;;
68858;SDS011;55864;49.238;8.092;2022-12-18T11:53:20;44.47;;;17.47;;
68858;SDS011;55864;49.238;8.092;2022-12-18T11:55:24;44.87;;;17.20;;
68858;SDS011;55864;49.238;8.092;2022-12-18T11:57:32;48.03;;;17.97;;
68858;SDS011;55864;49.238;8.092;2022-12-18T11:59:41;48.90;;;18.67;;
68858;SDS011;55864;49.238;8.092;2022-12-18T12:01:54;50.43;;;18.03;;
68858;SDS011;55864;49.238;8.092;2022-12-18T12:04:08;46.40;;;17.27;;